sensor_id;sensor_type;location;lat;lon;timestamp;temperature;humidity
10316;DHT22;5203;48.976;8.306;2023-06-19T00:02:01;26.30;48.50
10316;DHT22;5203;48.976;8.306;2023-06-19T00:04:27;26.10;50.10
10316;DHT22;5203;48.976;8.306;2023-06-19T00:06:54;26.00;49.60
10316;DHT22;5203;48.976;8.306;2023-06-19T00:09:19;25.80;50.10
10316;DHT22;5203;48.976;8.306;2023-06-19T00:11:45;25.50;50.70
10316;DHT22;5203;48.976;8.306;2023-06-19T00:14:11;25.10;51.80
10316;DHT22;5203;48.976;8.306;2023-06-19T00:16:37;24.80;52.90
10316;DHT22;5203;48.976;8.306;2023-06-19T00:19:02;24.60;53.60
10316;DHT22;5203;48.976;8.306;2023-06-19T00:21:29;24.40;54.80
10316;DHT22;5203;48.976;8.306;2023-06-19T00:23:55;24.20;55.20
10316;DHT22;5203;48.976;8.306;2023-06-19T00:26:21;23.90;55.70
10316;DHT22;5203;48.976;8.306;2023-06-19T00:28:50;23.90;56.10
10316;DHT22;5203;48.976;8.306;2023-06-19T00:31:16;23.80;55.90
10316;DHT22;5203;48.976;8.306;2023-06-19T00:33:43;23.70;55.40
10316;DHT22;5203;48.976;8.306;2023-06-19T00:36:13;23.70;55.90
10316;DHT22;5203;48.976;8.306;2023-06-19T00:38:39;23.70;56.90
10316;DHT22;5203;48.976;8.306;2023-06-19T00:41:05;23.60;57.50
10316;DHT22;5203;48.976;8.306;2023-06-19T00:43:31;23.50;57.70
10316;DHT22;5203;48.976;8.306;2023-06-19T00:45:58;23.50;58.10
10316;DHT22;5203;48.976;8.306;2023-06-19T00:48:24;23.50;59.00
10316;DHT22;5203;48.976;8.306;2023-06-19T00:50:50;23.40;58.20
10316;DHT22;5203;48.976;8.306;2023-06-19T00:53:17;23.40;58.90
10316;DHT22;5203;48.976;8.306;2023-06-19T00:55:45;23.30;59.30
10316;DHT22;5203;48.976;8.306;2023-06-19T00:58:11;23.30;59.40
10316;DHT22;5203;48.976;8.306;2023-06-19T01:00:37;23.30;59.70
10316;DHT22;5203;48.976;8.306;2023-06-19T01:03:03;23.30;59.80
10316;DHT22;5203;48.976;8.306;2023-06-19T01:05:29;23.30;60.30
10316;DHT22;5203;48.976;8.306;2023-06-19T01:11:00;23.10;62.60
10316;DHT22;5203;48.976;8.306;2023-06-19T01:13:39;23.00;63.30
10316;DHT22;5203;48.976;8.306;2023-06-19T01:16:07;22.90;64.30
10316;DHT22;5203;48.976;8.306;2023-06-19T01:18:33;22.80;65.40
10316;DHT22;5203;48.976;8.306;2023-06-19T01:21:13;22.70;67.00
10316;DHT22;5203;48.976;8.306;2023-06-19T01:23:39;22.50;71.00
10316;DHT22;5203;48.976;8.306;2023-06-19T01:26:06;22.40;73.00
10316;DHT22;5203;48.976;8.306;2023-06-19T01:28:33;22.30;74.10
10316;DHT22;5203;48.976;8.306;2023-06-19T01:31:00;22.10;75.20
10316;DHT22;5203;48.976;8.306;2023-06-19T01:33:28;22.00;78.50
10316;DHT22;5203;48.976;8.306;2023-06-19T01:35:56;21.90;80.60
10316;DHT22;5203;48.976;8.306;2023-06-19T01:38:24;21.90;83.10
10316;DHT22;5203;48.976;8.306;2023-06-19T01:40:53;21.80;83.20
10316;DHT22;5203;48.976;8.306;2023-06-19T01:43:20;21.80;84.30
10316;DHT22;5203;48.976;8.306;2023-06-19T01:45:47;21.60;85.30
10316;DHT22;5203;48.976;8.306;2023-06-19T01:48:14;21.70;86.00
10316;DHT22;5203;48.976;8.306;2023-06-19T01:50:41;21.70;85.90
10316;DHT22;5203;48.976;8.306;2023-06-19T01:53:07;21.60;86.30
10316;DHT22;5203;48.976;8.306;2023-06-19T01:55:32;21.60;86.40
10316;DHT22;5203;48.976;8.306;2023-06-19T01:57:58;21.60;86.80
10316;DHT22;5203;48.976;8.306;2023-06-19T02:00:23;21.60;87.00
10316;DHT22;5203;48.976;8.306;2023-06-19T02:02:49;21.50;87.30
10316;DHT22;5203;48.976;8.306;2023-06-19T02:05:15;21.50;87.40
10316;DHT22;5203;48.976;8.306;2023-06-19T02:07:41;21.60;87.30
10316;DHT22;5203;48.976;8.306;2023-06-19T02:10:07;21.60;86.10
10316;DHT22;5203;48.976;8.306;2023-06-19T02:12:33;21.50;87.00
10316;DHT22;5203;48.976;8.306;2023-06-19T02:14:59;21.50;86.50
10316;DHT22;5203;48.976;8.306;2023-06-19T02:17:24;21.50;85.50
10316;DHT22;5203;48.976;8.306;2023-06-19T02:19:50;21.50;85.40
10316;DHT22;5203;48.976;8.306;2023-06-19T02:22:18;21.50;85.70
10316;DHT22;5203;48.976;8.306;2023-06-19T02:24:44;21.60;86.00
10316;DHT22;5203;48.976;8.306;2023-06-19T02:27:13;21.60;84.80
10316;DHT22;5203;48.976;8.306;2023-06-19T02:29:38;21.60;84.30
10316;DHT22;5203;48.976;8.306;2023-06-19T02:32:04;21.70;84.70
10316;DHT22;5203;48.976;8.306;2023-06-19T02:34:30;21.60;85.00
10316;DHT22;5203;48.976;8.306;2023-06-19T02:36:56;21.50;83.30
10316;DHT22;5203;48.976;8.306;2023-06-19T02:39:22;21.50;84.20
10316;DHT22;5203;48.976;8.306;2023-06-19T02:41:48;21.50;84.60
10316;DHT22;5203;48.976;8.306;2023-06-19T02:44:14;21.40;83.20
10316;DHT22;5203;48.976;8.306;2023-06-19T02:46:40;21.40;82.80
10316;DHT22;5203;48.976;8.306;2023-06-19T02:49:06;21.40;83.40
10316;DHT22;5203;48.976;8.306;2023-06-19T02:51:31;21.60;82.50
10316;DHT22;5203;48.976;8.306;2023-06-19T02:53:57;21.70;82.40
10316;DHT22;5203;48.976;8.306;2023-06-19T02:56:25;21.70;82.70
10316;DHT22;5203;48.976;8.306;2023-06-19T02:58:50;21.80;83.10
10316;DHT22;5203;48.976;8.306;2023-06-19T03:01:16;21.90;83.20
10316;DHT22;5203;48.976;8.306;2023-06-19T03:03:42;22.00;81.40
10316;DHT22;5203;48.976;8.306;2023-06-19T03:06:08;21.80;82.00
10316;DHT22;5203;48.976;8.306;2023-06-19T03:08:35;21.70;82.30
10316;DHT22;5203;48.976;8.306;2023-06-19T03:11:00;21.80;82.30
10316;DHT22;5203;48.976;8.306;2023-06-19T03:13:26;21.70;83.20
10316;DHT22;5203;48.976;8.306;2023-06-19T03:15:52;21.60;83.40
10316;DHT22;5203;48.976;8.306;2023-06-19T03:18:17;21.50;84.30
10316;DHT22;5203;48.976;8.306;2023-06-19T03:20:43;21.40;84.50
10316;DHT22;5203;48.976;8.306;2023-06-19T03:23:09;21.50;84.80
10316;DHT22;5203;48.976;8.306;2023-06-19T03:25:34;21.60;83.90
10316;DHT22;5203;48.976;8.306;2023-06-19T03:28:03;21.50;84.20
10316;DHT22;5203;48.976;8.306;2023-06-19T03:30:30;21.30;84.30
10316;DHT22;5203;48.976;8.306;2023-06-19T03:32:56;21.40;84.40
10316;DHT22;5203;48.976;8.306;2023-06-19T03:35:21;21.40;84.40
10316;DHT22;5203;48.976;8.306;2023-06-19T03:37:47;21.50;83.90
10316;DHT22;5203;48.976;8.306;2023-06-19T03:40:13;21.60;83.10
10316;DHT22;5203;48.976;8.306;2023-06-19T03:42:42;21.70;82.20
10316;DHT22;5203;48.976;8.306;2023-06-19T03:45:07;21.70;81.60
10316;DHT22;5203;48.976;8.306;2023-06-19T03:47:33;21.80;80.70
10316;DHT22;5203;48.976;8.306;2023-06-19T03:49:59;21.70;81.20
10316;DHT22;5203;48.976;8.306;2023-06-19T03:52:24;21.70;80.90
10316;DHT22;5203;48.976;8.306;2023-06-19T03:54:50;21.90;81.40
10316;DHT22;5203;48.976;8.306;2023-06-19T03:57:16;21.90;79.70
10316;DHT22;5203;48.976;8.306;2023-06-19T03:59:41;22.00;79.90
10316;DHT22;5203;48.976;8.306;2023-06-19T04:02:07;22.10;79.50
10316;DHT22;5203;48.976;8.306;2023-06-19T04:04:32;22.10;78.60
10316;DHT22;5203;48.976;8.306;2023-06-19T04:06:58;22.10;78.70
10316;DHT22;5203;48.976;8.306;2023-06-19T04:09:27;22.00;78.80
10316;DHT22;5203;48.976;8.306;2023-06-19T04:11:52;21.80;79.70
10316;DHT22;5203;48.976;8.306;2023-06-19T04:14:18;21.80;79.80
10316;DHT22;5203;48.976;8.306;2023-06-19T04:16:44;21.70;80.30
10316;DHT22;5203;48.976;8.306;2023-06-19T04:19:09;21.70;81.80
10316;DHT22;5203;48.976;8.306;2023-06-19T04:21:35;21.70;81.20
10316;DHT22;5203;48.976;8.306;2023-06-19T04:24:01;21.70;80.90
10316;DHT22;5203;48.976;8.306;2023-06-19T04:26:26;21.80;80.50
10316;DHT22;5203;48.976;8.306;2023-06-19T04:28:52;21.70;81.10
10316;DHT22;5203;48.976;8.306;2023-06-19T04:31:17;21.70;81.20
10316;DHT22;5203;48.976;8.306;2023-06-19T04:33:45;21.70;81.40
10316;DHT22;5203;48.976;8.306;2023-06-19T04:36:10;21.50;82.10
10316;DHT22;5203;48.976;8.306;2023-06-19T04:38:36;21.50;83.30
10316;DHT22;5203;48.976;8.306;2023-06-19T04:41:02;21.40;83.00
10316;DHT22;5203;48.976;8.306;2023-06-19T04:43:27;21.50;83.30
10316;DHT22;5203;48.976;8.306;2023-06-19T04:45:53;21.50;83.30
10316;DHT22;5203;48.976;8.306;2023-06-19T04:48:19;21.50;82.50
10316;DHT22;5203;48.976;8.306;2023-06-19T04:50:44;21.50;83.90
10316;DHT22;5203;48.976;8.306;2023-06-19T04:53:10;21.50;83.00
10316;DHT22;5203;48.976;8.306;2023-06-19T04:55:37;21.60;82.80
10316;DHT22;5203;48.976;8.306;2023-06-19T04:58:03;21.60;83.00
10316;DHT22;5203;48.976;8.306;2023-06-19T05:00:29;21.60;83.00
10316;DHT22;5203;48.976;8.306;2023-06-19T05:02:54;21.50;83.30
10316;DHT22;5203;48.976;8.306;2023-06-19T05:05:25;21.50;83.70
10316;DHT22;5203;48.976;8.306;2023-06-19T05:07:50;21.50;83.60
10316;DHT22;5203;48.976;8.306;2023-06-19T05:10:16;21.50;83.90
10316;DHT22;5203;48.976;8.306;2023-06-19T05:12:42;21.50;83.90
10316;DHT22;5203;48.976;8.306;2023-06-19T05:15:08;21.60;83.60
10316;DHT22;5203;48.976;8.306;2023-06-19T05:17:34;21.60;83.20
10316;DHT22;5203;48.976;8.306;2023-06-19T05:20:00;21.60;83.50
10316;DHT22;5203;48.976;8.306;2023-06-19T05:22:25;21.60;83.90
10316;DHT22;5203;48.976;8.306;2023-06-19T05:24:52;21.60;84.20
10316;DHT22;5203;48.976;8.306;2023-06-19T05:27:17;21.60;84.10
10316;DHT22;5203;48.976;8.306;2023-06-19T05:29:43;21.60;84.50
10316;DHT22;5203;48.976;8.306;2023-06-19T05:32:09;21.70;84.60
10316;DHT22;5203;48.976;8.306;2023-06-19T05:34:34;21.70;84.70
10316;DHT22;5203;48.976;8.306;2023-06-19T05:37:00;21.80;84.50
10316;DHT22;5203;48.976;8.306;2023-06-19T05:39:29;21.90;83.70
10316;DHT22;5203;48.976;8.306;2023-06-19T05:41:54;22.10;84.10
10316;DHT22;5203;48.976;8.306;2023-06-19T05:44:20;22.20;82.10
10316;DHT22;5203;48.976;8.306;2023-06-19T05:46:46;22.10;82.70
10316;DHT22;5203;48.976;8.306;2023-06-19T05:49:11;22.20;81.90
10316;DHT22;5203;48.976;8.306;2023-06-19T05:51:37;22.20;82.60
10316;DHT22;5203;48.976;8.306;2023-06-19T05:54:03;22.30;82.50
10316;DHT22;5203;48.976;8.306;2023-06-19T05:56:32;22.30;82.00
10316;DHT22;5203;48.976;8.306;2023-06-19T05:59:02;22.40;82.10
10316;DHT22;5203;48.976;8.306;2023-06-19T06:01:28;22.40;81.40
10316;DHT22;5203;48.976;8.306;2023-06-19T06:03:55;22.40;80.10
10316;DHT22;5203;48.976;8.306;2023-06-19T06:06:22;22.30;80.50
10316;DHT22;5203;48.976;8.306;2023-06-19T06:08:49;22.40;81.80
10316;DHT22;5203;48.976;8.306;2023-06-19T06:11:15;22.30;80.90
10316;DHT22;5203;48.976;8.306;2023-06-19T06:13:40;22.40;80.80
10316;DHT22;5203;48.976;8.306;2023-06-19T06:16:06;22.40;79.80
10316;DHT22;5203;48.976;8.306;2023-06-19T06:18:32;22.50;80.60
10316;DHT22;5203;48.976;8.306;2023-06-19T06:20:58;22.70;80.50
10316;DHT22;5203;48.976;8.306;2023-06-19T06:23:25;22.80;79.30
10316;DHT22;5203;48.976;8.306;2023-06-19T06:25:51;22.90;78.90
10316;DHT22;5203;48.976;8.306;2023-06-19T06:28:17;23.00;78.20
10316;DHT22;5203;48.976;8.306;2023-06-19T06:30:43;23.00;76.30
10316;DHT22;5203;48.976;8.306;2023-06-19T06:33:09;23.00;77.00
10316;DHT22;5203;48.976;8.306;2023-06-19T06:35:35;23.10;76.20
10316;DHT22;5203;48.976;8.306;2023-06-19T06:38:04;23.00;75.60
10316;DHT22;5203;48.976;8.306;2023-06-19T06:40:30;23.20;75.50
10316;DHT22;5203;48.976;8.306;2023-06-19T06:42:56;23.30;75.40
10316;DHT22;5203;48.976;8.306;2023-06-19T06:45:21;23.40;73.70
10316;DHT22;5203;48.976;8.306;2023-06-19T06:47:47;23.50;72.90
10316;DHT22;5203;48.976;8.306;2023-06-19T06:50:15;23.60;72.00
10316;DHT22;5203;48.976;8.306;2023-06-19T06:52:41;23.60;72.40
10316;DHT22;5203;48.976;8.306;2023-06-19T06:55:07;23.50;71.70
10316;DHT22;5203;48.976;8.306;2023-06-19T06:57:32;23.50;71.30
10316;DHT22;5203;48.976;8.306;2023-06-19T06:59:58;23.70;71.50
10316;DHT22;5203;48.976;8.306;2023-06-19T07:02:24;23.80;70.80
10316;DHT22;5203;48.976;8.306;2023-06-19T07:04:50;23.80;69.80
10316;DHT22;5203;48.976;8.306;2023-06-19T07:07:15;23.80;70.40
10316;DHT22;5203;48.976;8.306;2023-06-19T07:09:41;23.60;69.50
10316;DHT22;5203;48.976;8.306;2023-06-19T07:12:07;23.80;69.80
10316;DHT22;5203;48.976;8.306;2023-06-19T07:14:33;24.00;69.40
10316;DHT22;5203;48.976;8.306;2023-06-19T07:16:59;23.90;68.60
10316;DHT22;5203;48.976;8.306;2023-06-19T07:19:24;23.80;68.20
10316;DHT22;5203;48.976;8.306;2023-06-19T07:21:50;23.70;69.90
10316;DHT22;5203;48.976;8.306;2023-06-19T07:24:16;23.70;70.20
10316;DHT22;5203;48.976;8.306;2023-06-19T07:26:42;23.50;69.70
10316;DHT22;5203;48.976;8.306;2023-06-19T07:29:08;23.40;70.90
10316;DHT22;5203;48.976;8.306;2023-06-19T07:31:33;23.50;71.30
10316;DHT22;5203;48.976;8.306;2023-06-19T07:33:59;23.40;71.70
10316;DHT22;5203;48.976;8.306;2023-06-19T07:36:25;23.40;71.90
10316;DHT22;5203;48.976;8.306;2023-06-19T07:38:52;23.50;71.90
10316;DHT22;5203;48.976;8.306;2023-06-19T07:41:18;23.60;72.10
10316;DHT22;5203;48.976;8.306;2023-06-19T07:43:43;23.80;71.40
10316;DHT22;5203;48.976;8.306;2023-06-19T07:46:09;23.90;71.00
10316;DHT22;5203;48.976;8.306;2023-06-19T07:48:35;24.10;72.30
10316;DHT22;5203;48.976;8.306;2023-06-19T07:51:01;24.20;71.20
10316;DHT22;5203;48.976;8.306;2023-06-19T07:53:27;24.30;68.70
10316;DHT22;5203;48.976;8.306;2023-06-19T07:55:52;24.30;69.60
10316;DHT22;5203;48.976;8.306;2023-06-19T07:58:18;24.50;70.60
10316;DHT22;5203;48.976;8.306;2023-06-19T08:00:43;24.60;70.90
10316;DHT22;5203;48.976;8.306;2023-06-19T08:03:09;24.90;69.90
10316;DHT22;5203;48.976;8.306;2023-06-19T08:05:38;24.90;68.40
10316;DHT22;5203;48.976;8.306;2023-06-19T08:08:04;24.90;68.60
10316;DHT22;5203;48.976;8.306;2023-06-19T08:10:30;25.00;68.20
10316;DHT22;5203;48.976;8.306;2023-06-19T08:12:56;25.00;69.20
10316;DHT22;5203;48.976;8.306;2023-06-19T08:15:21;25.00;69.70
10316;DHT22;5203;48.976;8.306;2023-06-19T08:17:47;25.10;69.00
10316;DHT22;5203;48.976;8.306;2023-06-19T08:20:13;24.90;68.50
10316;DHT22;5203;48.976;8.306;2023-06-19T08:22:39;25.10;68.80
10316;DHT22;5203;48.976;8.306;2023-06-19T08:25:05;25.10;67.70
10316;DHT22;5203;48.976;8.306;2023-06-19T08:27:31;25.40;66.70
10316;DHT22;5203;48.976;8.306;2023-06-19T08:29:57;25.60;66.60
10316;DHT22;5203;48.976;8.306;2023-06-19T08:32:23;25.60;66.90
10316;DHT22;5203;48.976;8.306;2023-06-19T08:34:49;25.60;66.20
10316;DHT22;5203;48.976;8.306;2023-06-19T08:37:14;25.70;65.10
10316;DHT22;5203;48.976;8.306;2023-06-19T08:39:40;25.90;64.70
10316;DHT22;5203;48.976;8.306;2023-06-19T08:42:06;26.10;64.30
10316;DHT22;5203;48.976;8.306;2023-06-19T08:44:34;25.90;62.60
10316;DHT22;5203;48.976;8.306;2023-06-19T08:47:01;26.00;64.00
10316;DHT22;5203;48.976;8.306;2023-06-19T08:49:29;26.20;63.80
10316;DHT22;5203;48.976;8.306;2023-06-19T08:51:55;26.40;61.00
10316;DHT22;5203;48.976;8.306;2023-06-19T08:54:21;26.50;61.30
10316;DHT22;5203;48.976;8.306;2023-06-19T08:56:47;26.50;61.70
10316;DHT22;5203;48.976;8.306;2023-06-19T08:59:15;26.70;61.50
10316;DHT22;5203;48.976;8.306;2023-06-19T09:01:47;26.80;59.90
10316;DHT22;5203;48.976;8.306;2023-06-19T09:04:18;27.00;59.70
10316;DHT22;5203;48.976;8.306;2023-06-19T09:06:50;27.00;59.80
10316;DHT22;5203;48.976;8.306;2023-06-19T09:09:17;26.90;59.60
10316;DHT22;5203;48.976;8.306;2023-06-19T09:12:05;27.10;61.20
10316;DHT22;5203;48.976;8.306;2023-06-19T09:14:42;27.40;60.50
10316;DHT22;5203;48.976;8.306;2023-06-19T09:17:12;27.40;59.70
10316;DHT22;5203;48.976;8.306;2023-06-19T09:19:47;27.60;59.60
10316;DHT22;5203;48.976;8.306;2023-06-19T09:22:13;27.70;59.30
10316;DHT22;5203;48.976;8.306;2023-06-19T09:24:40;27.90;57.40
10316;DHT22;5203;48.976;8.306;2023-06-19T09:27:24;27.90;57.60
10316;DHT22;5203;48.976;8.306;2023-06-19T09:29:50;28.00;57.20
10316;DHT22;5203;48.976;8.306;2023-06-19T09:32:23;28.00;58.10
10316;DHT22;5203;48.976;8.306;2023-06-19T09:34:51;28.00;56.10
10316;DHT22;5203;48.976;8.306;2023-06-19T09:37:23;28.00;55.80
10316;DHT22;5203;48.976;8.306;2023-06-19T09:39:56;27.90;56.90
10316;DHT22;5203;48.976;8.306;2023-06-19T09:42:33;28.10;56.90
10316;DHT22;5203;48.976;8.306;2023-06-19T09:45:21;28.40;54.90
10316;DHT22;5203;48.976;8.306;2023-06-19T09:47:52;28.60;54.70
10316;DHT22;5203;48.976;8.306;2023-06-19T09:50:22;28.70;53.70
10316;DHT22;5203;48.976;8.306;2023-06-19T09:52:49;28.70;54.30
10316;DHT22;5203;48.976;8.306;2023-06-19T09:55:18;28.90;53.40
10316;DHT22;5203;48.976;8.306;2023-06-19T09:57:45;28.90;53.40
10316;DHT22;5203;48.976;8.306;2023-06-19T10:00:12;28.90;53.70
10316;DHT22;5203;48.976;8.306;2023-06-19T10:02:42;28.90;53.30
10316;DHT22;5203;48.976;8.306;2023-06-19T10:05:08;29.00;54.00
10316;DHT22;5203;48.976;8.306;2023-06-19T10:07:37;28.80;53.60
10316;DHT22;5203;48.976;8.306;2023-06-19T10:10:05;28.60;54.20
10316;DHT22;5203;48.976;8.306;2023-06-19T10:12:42;28.50;54.90
10316;DHT22;5203;48.976;8.306;2023-06-19T10:15:28;28.30;54.90
10316;DHT22;5203;48.976;8.306;2023-06-19T10:18:05;28.50;54.40
10316;DHT22;5203;48.976;8.306;2023-06-19T10:20:37;28.60;54.10
10316;DHT22;5203;48.976;8.306;2023-06-19T10:23:20;28.70;53.90
10316;DHT22;5203;48.976;8.306;2023-06-19T10:26:02;28.90;53.70
10316;DHT22;5203;48.976;8.306;2023-06-19T10:28:30;29.50;52.00
10316;DHT22;5203;48.976;8.306;2023-06-19T10:31:05;29.90;50.70
10316;DHT22;5203;48.976;8.306;2023-06-19T10:33:33;30.00;49.90
10316;DHT22;5203;48.976;8.306;2023-06-19T10:36:01;29.80;49.90
10316;DHT22;5203;48.976;8.306;2023-06-19T10:38:28;29.80;49.60
10316;DHT22;5203;48.976;8.306;2023-06-19T10:40:57;29.60;48.60
10316;DHT22;5203;48.976;8.306;2023-06-19T10:43:24;29.40;52.20
10316;DHT22;5203;48.976;8.306;2023-06-19T10:45:56;29.60;50.40
10316;DHT22;5203;48.976;8.306;2023-06-19T10:48:26;30.00;49.40
10316;DHT22;5203;48.976;8.306;2023-06-19T10:50:52;29.60;50.90
10316;DHT22;5203;48.976;8.306;2023-06-19T10:53:31;29.80;50.50
10316;DHT22;5203;48.976;8.306;2023-06-19T10:56:03;30.20;48.70
10316;DHT22;5203;48.976;8.306;2023-06-19T10:58:36;30.50;48.20
10316;DHT22;5203;48.976;8.306;2023-06-19T11:01:11;30.60;47.70
10316;DHT22;5203;48.976;8.306;2023-06-19T11:03:37;30.80;46.60
10316;DHT22;5203;48.976;8.306;2023-06-19T11:06:03;31.00;45.60
10316;DHT22;5203;48.976;8.306;2023-06-19T11:08:29;31.10;47.00
10316;DHT22;5203;48.976;8.306;2023-06-19T11:10:55;31.40;45.10
10316;DHT22;5203;48.976;8.306;2023-06-19T11:13:26;31.50;44.70
10316;DHT22;5203;48.976;8.306;2023-06-19T11:15:52;31.70;44.60
10316;DHT22;5203;48.976;8.306;2023-06-19T11:18:18;31.70;43.80
10316;DHT22;5203;48.976;8.306;2023-06-19T11:20:46;31.30;44.50
10316;DHT22;5203;48.976;8.306;2023-06-19T11:23:28;30.80;45.20
10316;DHT22;5203;48.976;8.306;2023-06-19T11:25:54;31.00;46.40
10316;DHT22;5203;48.976;8.306;2023-06-19T11:28:27;30.90;44.90
10316;DHT22;5203;48.976;8.306;2023-06-19T11:31:02;31.10;47.40
10316;DHT22;5203;48.976;8.306;2023-06-19T11:33:29;30.90;45.40
10316;DHT22;5203;48.976;8.306;2023-06-19T11:36:00;30.80;46.40
10316;DHT22;5203;48.976;8.306;2023-06-19T11:38:28;30.80;45.60
10316;DHT22;5203;48.976;8.306;2023-06-19T11:40:56;31.10;46.20
10316;DHT22;5203;48.976;8.306;2023-06-19T11:43:30;31.60;44.30
10316;DHT22;5203;48.976;8.306;2023-06-19T11:46:32;31.80;42.50
10316;DHT22;5203;48.976;8.306;2023-06-19T11:51:37;32.70;41.20
10316;DHT22;5203;48.976;8.306;2023-06-19T11:54:08;33.00;39.20
10316;DHT22;5203;48.976;8.306;2023-06-19T11:56:35;33.00;39.50
10316;DHT22;5203;48.976;8.306;2023-06-19T11:59:02;32.60;39.80
10316;DHT22;5203;48.976;8.306;2023-06-19T12:01:35;32.70;39.70
10316;DHT22;5203;48.976;8.306;2023-06-19T12:04:02;33.00;39.10
10316;DHT22;5203;48.976;8.306;2023-06-19T12:06:32;33.40;38.70
10316;DHT22;5203;48.976;8.306;2023-06-19T12:09:01;33.20;39.00
10316;DHT22;5203;48.976;8.306;2023-06-19T12:11:26;32.90;39.30
10316;DHT22;5203;48.976;8.306;2023-06-19T12:13:52;32.70;39.60
10316;DHT22;5203;48.976;8.306;2023-06-19T12:16:23;32.70;39.80
10316;DHT22;5203;48.976;8.306;2023-06-19T12:18:49;32.90;39.10
10316;DHT22;5203;48.976;8.306;2023-06-19T12:21:15;33.00;39.50
10316;DHT22;5203;48.976;8.306;2023-06-19T12:23:41;33.10;39.30
10316;DHT22;5203;48.976;8.306;2023-06-19T12:26:07;33.20;39.00
10316;DHT22;5203;48.976;8.306;2023-06-19T12:28:33;32.90;39.30
10316;DHT22;5203;48.976;8.306;2023-06-19T12:30:59;32.80;39.40
10316;DHT22;5203;48.976;8.306;2023-06-19T12:33:25;32.80;39.20
10316;DHT22;5203;48.976;8.306;2023-06-19T12:35:54;33.20;38.50
10316;DHT22;5203;48.976;8.306;2023-06-19T12:38:20;33.60;37.50
10316;DHT22;5203;48.976;8.306;2023-06-19T12:40:45;33.70;36.60
10316;DHT22;5203;48.976;8.306;2023-06-19T12:43:11;33.80;35.90
10316;DHT22;5203;48.976;8.306;2023-06-19T12:45:37;33.80;35.40
10316;DHT22;5203;48.976;8.306;2023-06-19T12:48:03;33.40;36.40
10316;DHT22;5203;48.976;8.306;2023-06-19T12:50:29;33.30;37.10
10316;DHT22;5203;48.976;8.306;2023-06-19T12:52:57;33.70;35.70
10316;DHT22;5203;48.976;8.306;2023-06-19T12:55:23;33.80;34.90
10316;DHT22;5203;48.976;8.306;2023-06-19T12:57:49;33.60;35.90
10316;DHT22;5203;48.976;8.306;2023-06-19T13:00:23;33.20;36.50
10316;DHT22;5203;48.976;8.306;2023-06-19T13:02:49;33.30;38.10
10316;DHT22;5203;48.976;8.306;2023-06-19T13:05:15;33.80;36.40
10316;DHT22;5203;48.976;8.306;2023-06-19T13:07:41;34.50;35.30
10316;DHT22;5203;48.976;8.306;2023-06-19T13:10:07;35.00;35.10
10316;DHT22;5203;48.976;8.306;2023-06-19T13:12:33;35.50;33.80
10316;DHT22;5203;48.976;8.306;2023-06-19T13:14:59;35.50;34.00
10316;DHT22;5203;48.976;8.306;2023-06-19T13:17:24;35.30;34.00
10316;DHT22;5203;48.976;8.306;2023-06-19T13:19:50;35.00;34.40
10316;DHT22;5203;48.976;8.306;2023-06-19T13:22:16;35.00;35.50
10316;DHT22;5203;48.976;8.306;2023-06-19T13:24:42;34.70;34.50
10316;DHT22;5203;48.976;8.306;2023-06-19T13:27:08;34.60;34.50
10316;DHT22;5203;48.976;8.306;2023-06-19T13:29:34;34.60;35.80
10316;DHT22;5203;48.976;8.306;2023-06-19T13:32:00;34.50;36.00
10316;DHT22;5203;48.976;8.306;2023-06-19T13:34:26;34.40;36.00
10316;DHT22;5203;48.976;8.306;2023-06-19T13:36:52;34.30;36.40
10316;DHT22;5203;48.976;8.306;2023-06-19T13:39:18;34.30;36.00
10316;DHT22;5203;48.976;8.306;2023-06-19T13:41:45;34.00;35.80
10316;DHT22;5203;48.976;8.306;2023-06-19T13:44:11;34.30;35.90
10316;DHT22;5203;48.976;8.306;2023-06-19T13:46:38;33.40;36.70
10316;DHT22;5203;48.976;8.306;2023-06-19T13:49:04;33.50;37.30
10316;DHT22;5203;48.976;8.306;2023-06-19T13:51:30;34.30;35.80
10316;DHT22;5203;48.976;8.306;2023-06-19T13:53:56;35.10;35.40
10316;DHT22;5203;48.976;8.306;2023-06-19T13:56:21;35.50;34.60
10316;DHT22;5203;48.976;8.306;2023-06-19T13:58:51;36.00;33.40
10316;DHT22;5203;48.976;8.306;2023-06-19T14:01:21;36.10;33.80
10316;DHT22;5203;48.976;8.306;2023-06-19T14:03:51;36.60;32.50
10316;DHT22;5203;48.976;8.306;2023-06-19T14:06:17;36.50;31.20
10316;DHT22;5203;48.976;8.306;2023-06-19T14:08:46;36.00;32.40
10316;DHT22;5203;48.976;8.306;2023-06-19T14:11:12;35.60;33.30
10316;DHT22;5203;48.976;8.306;2023-06-19T14:13:41;35.50;34.00
10316;DHT22;5203;48.976;8.306;2023-06-19T14:16:09;35.00;34.70
10316;DHT22;5203;48.976;8.306;2023-06-19T14:18:41;34.90;34.60
10316;DHT22;5203;48.976;8.306;2023-06-19T14:21:13;34.80;36.30
10316;DHT22;5203;48.976;8.306;2023-06-19T14:23:39;35.00;35.50
10316;DHT22;5203;48.976;8.306;2023-06-19T14:26:17;34.90;35.00
10316;DHT22;5203;48.976;8.306;2023-06-19T14:28:45;34.90;34.40
10316;DHT22;5203;48.976;8.306;2023-06-19T14:31:10;35.10;34.90
10316;DHT22;5203;48.976;8.306;2023-06-19T14:33:36;35.60;34.70
10316;DHT22;5203;48.976;8.306;2023-06-19T14:36:03;35.50;34.60
10316;DHT22;5203;48.976;8.306;2023-06-19T14:38:29;35.80;32.70
10316;DHT22;5203;48.976;8.306;2023-06-19T14:41:00;36.10;33.00
10316;DHT22;5203;48.976;8.306;2023-06-19T14:43:27;36.00;32.70
10316;DHT22;5203;48.976;8.306;2023-06-19T14:45:55;35.60;33.10
10316;DHT22;5203;48.976;8.306;2023-06-19T14:48:20;35.50;34.20
10316;DHT22;5203;48.976;8.306;2023-06-19T14:50:46;35.10;35.50
10316;DHT22;5203;48.976;8.306;2023-06-19T14:53:12;34.40;36.50
10316;DHT22;5203;48.976;8.306;2023-06-19T14:55:41;34.10;38.00
10316;DHT22;5203;48.976;8.306;2023-06-19T14:58:14;33.90;38.30
10316;DHT22;5203;48.976;8.306;2023-06-19T15:00:40;33.60;38.80
10316;DHT22;5203;48.976;8.306;2023-06-19T15:03:09;33.50;38.90
10316;DHT22;5203;48.976;8.306;2023-06-19T15:05:35;33.70;39.20
10316;DHT22;5203;48.976;8.306;2023-06-19T15:08:01;33.70;38.70
10316;DHT22;5203;48.976;8.306;2023-06-19T15:10:27;33.60;39.20
10316;DHT22;5203;48.976;8.306;2023-06-19T15:12:53;33.60;39.40
10316;DHT22;5203;48.976;8.306;2023-06-19T15:15:18;33.40;39.10
10316;DHT22;5203;48.976;8.306;2023-06-19T15:17:44;33.00;40.90
10316;DHT22;5203;48.976;8.306;2023-06-19T15:20:10;32.90;40.90
10316;DHT22;5203;48.976;8.306;2023-06-19T15:22:36;32.80;40.50
10316;DHT22;5203;48.976;8.306;2023-06-19T15:25:03;32.60;41.50
10316;DHT22;5203;48.976;8.306;2023-06-19T15:27:30;32.50;40.90
10316;DHT22;5203;48.976;8.306;2023-06-19T15:29:56;32.10;41.80
10316;DHT22;5203;48.976;8.306;2023-06-19T15:32:23;32.00;43.00
10316;DHT22;5203;48.976;8.306;2023-06-19T15:34:49;32.00;43.00
10316;DHT22;5203;48.976;8.306;2023-06-19T15:37:16;31.90;43.70
10316;DHT22;5203;48.976;8.306;2023-06-19T15:39:42;31.90;44.20
10316;DHT22;5203;48.976;8.306;2023-06-19T15:42:08;31.90;43.30
10316;DHT22;5203;48.976;8.306;2023-06-19T15:44:34;32.00;44.30
10316;DHT22;5203;48.976;8.306;2023-06-19T15:46:59;32.10;43.90
10316;DHT22;5203;48.976;8.306;2023-06-19T15:49:25;32.10;43.60
10316;DHT22;5203;48.976;8.306;2023-06-19T15:51:50;32.10;43.60